Pays
Station

 

Conditions  météo  pour  Vestmannaeyjar  -  Islande    Islande

  
4 °C
    
 
 

METAR pour Vestmannaeyjar :

BIVM 200700Z 27025G38KT 9999 FEW020 04/M02 Q1003

 

Voici le bulletin pour Vestmannaeyjar - Islande.
 
Le bulletin a été fait il y a 11 minutes, à 07:00 UTC .
Le vent soufflait à la vitesse de 12.9 mètres par seconde avec des rafales jusqu'à 19.5 mètres par seconde de Ouest (270°).
 
La température était de 4 °C, avec un point de rosée à -2 °C.
La température ressentie était de -3 °C.
 
La pression atmosphérique était de 1003 hPa.
L'humidité relative était de 64.9%.
 
Il y avait 1 à 2/8ème de nébulosité à une hauteur de 610 mètres.
 
La visibilité globale était de supérieure à 10 kilomètres.
 

 
 
 

Pays :   A   B   C   D   E   F   G   H   I   J   K   L   M   N   O   P   Q   R   S   T   U   V   W   Y   Z

 

Partenaires :  Info Météo avec Met'info
Météo Marine avec MeteoMarine.net
Infos Site  |  Infos Légales  |  Crédits  |  Confidentialité
Contactez-nous  |  Ajouter aux favoris
© 2013-2020 METAR - Tous droits réservés